createdAt,value
2018-12-02T00:00:43.019Z,0
2018-12-02T00:01:51.681Z,0
2018-12-02T00:03:00.364Z,0
2018-12-02T00:04:09.032Z,0
2018-12-02T00:05:17.714Z,0
2018-12-02T00:06:26.380Z,0
2018-12-02T00:07:35.312Z,0
2018-12-02T00:08:43.978Z,0
2018-12-02T00:09:52.648Z,0
2018-12-02T00:11:01.318Z,0
2018-12-02T00:12:09.988Z,0
2018-12-02T00:13:18.673Z,0
2018-12-02T00:14:27.343Z,0
2018-12-02T00:15:36.016Z,0
2018-12-02T00:16:44.677Z,0
2018-12-02T00:17:53.350Z,0
2018-12-02T00:19:02.037Z,0
2018-12-02T00:20:10.710Z,0
2018-12-02T00:21:19.396Z,0
2018-12-02T00:22:28.061Z,0
2018-12-02T00:23:36.734Z,0
2018-12-02T00:24:45.399Z,0
2018-12-02T00:25:54.341Z,0
2018-12-02T00:27:03.004Z,0
2018-12-02T00:28:11.681Z,0
2018-12-02T00:29:20.340Z,0
2018-12-02T00:30:29.011Z,0
2018-12-02T00:31:37.687Z,0
2018-12-02T00:32:46.357Z,0
2018-12-02T00:33:55.029Z,0
2018-12-02T00:35:03.684Z,0
2018-12-02T00:36:12.363Z,0
2018-12-02T00:37:21.544Z,0
2018-12-02T00:38:30.223Z,0
2018-12-02T00:39:38.897Z,0
2018-12-02T00:40:47.571Z,0
2018-12-02T00:41:56.493Z,0
2018-12-02T00:43:05.175Z,0
2018-12-02T00:44:13.837Z,0
2018-12-02T00:45:22.518Z,0
2018-12-02T00:46:31.192Z,0
2018-12-02T00:47:39.873Z,0
2018-12-02T00:48:48.546Z,0
2018-12-02T00:49:57.210Z,0
2018-12-02T00:51:05.879Z,0
2018-12-02T00:52:14.553Z,0
2018-12-02T00:53:23.230Z,0
2018-12-02T00:54:31.891Z,0
2018-12-02T00:55:40.572Z,0
2018-12-02T00:56:49.243Z,0
2018-12-02T00:57:57.921Z,0
2018-12-02T00:59:06.608Z,0
2018-12-02T01:00:15.289Z,0
2018-12-02T01:01:23.958Z,0
2018-12-02T01:02:32.643Z,0
2018-12-02T01:03:41.572Z,0
2018-12-02T01:04:50.251Z,0
2018-12-02T01:05:58.909Z,0
2018-12-02T01:07:07.597Z,0
2018-12-02T01:08:16.524Z,0
2018-12-02T01:09:25.196Z,0
2018-12-02T01:10:33.871Z,0
2018-12-02T01:11:42.535Z,0
2018-12-02T01:12:51.207Z,0
2018-12-02T01:13:59.868Z,0
2018-12-02T01:15:08.800Z,0
2018-12-02T01:16:17.468Z,0
2018-12-02T01:17:26.133Z,0
2018-12-02T01:18:34.802Z,0
2018-12-02T01:19:43.489Z,0
2018-12-02T01:20:52.158Z,0
2018-12-02T01:22:00.829Z,0
2018-12-02T01:23:09.498Z,0
2018-12-02T01:24:18.174Z,0
2018-12-02T01:25:26.910Z,0
2018-12-02T01:26:35.577Z,0
2018-12-02T01:27:44.247Z,0
2018-12-02T01:28:53.246Z,0
2018-12-02T01:30:02.352Z,0
2018-12-02T01:31:11.280Z,0
2018-12-02T01:32:20.422Z,0
2018-12-02T01:33:29.271Z,0
2018-12-02T01:34:37.971Z,0
2018-12-02T01:35:46.645Z,0
2018-12-02T01:36:55.566Z,0
2018-12-02T01:38:05.326Z,0
2018-12-02T01:39:13.998Z,0
2018-12-02T01:40:22.724Z,0
2018-12-02T01:41:31.656Z,0
2018-12-02T01:42:40.319Z,0
2018-12-02T01:43:49.239Z,0
2018-12-02T01:44:57.914Z,0
2018-12-02T01:46:06.853Z,0
2018-12-02T01:47:15.525Z,0
2018-12-02T01:48:24.189Z,0
2018-12-02T01:49:33.179Z,0
2018-12-02T01:50:41.851Z,0
2018-12-02T01:51:50.530Z,0
2018-12-02T01:52:59.452Z,0
2018-12-02T01:54:08.373Z,0
2018-12-02T01:55:17.051Z,0
2018-12-02T01:56:25.727Z,0
2018-12-02T01:57:34.395Z,0
2018-12-02T01:58:43.075Z,0
2018-12-02T01:59:51.741Z,0
2018-12-02T02:01:00.674Z,0
2018-12-02T02:02:09.346Z,0
2018-12-02T02:03:18.022Z,0
2018-12-02T02:04:26.698Z,0
2018-12-02T02:05:35.368Z,0
2018-12-02T02:06:44.043Z,0
2018-12-02T02:07:53.226Z,0
2018-12-02T02:09:01.892Z,0
2018-12-02T02:10:10.552Z,0
2018-12-02T02:11:19.495Z,0
2018-12-02T02:12:28.170Z,0
2018-12-02T02:13:36.840Z,0
2018-12-02T02:14:45.503Z,0
2018-12-02T02:15:54.185Z,0
2018-12-02T02:17:02.856Z,0
2018-12-02T02:18:11.577Z,0
2018-12-02T02:19:20.255Z,0
2018-12-02T02:20:28.931Z,0
2018-12-02T02:21:37.603Z,0
2018-12-02T02:22:46.277Z,0
2018-12-02T02:23:56.256Z,0
2018-12-02T02:25:04.921Z,0
2018-12-02T02:26:13.600Z,0
2018-12-02T02:27:22.265Z,0
2018-12-02T02:28:30.955Z,0
2018-12-02T02:29:39.876Z,0
2018-12-02T02:30:48.553Z,0
2018-12-02T02:31:57.226Z,0
2018-12-02T02:33:06.164Z,0
2018-12-02T02:34:15.094Z,0
2018-12-02T02:35:23.776Z,0
2018-12-02T02:36:32.476Z,0
2018-12-02T02:37:41.173Z,0
2018-12-02T02:38:49.848Z,0
2018-12-02T02:39:59.022Z,0
2018-12-02T02:41:07.695Z,0
2018-12-02T02:42:16.622Z,0
2018-12-02T02:43:25.327Z,0
2018-12-02T02:44:34.000Z,0
2018-12-02T02:45:42.679Z,0
2018-12-02T02:46:51.338Z,0
2018-12-02T02:48:00.283Z,0
2018-12-02T02:49:08.951Z,0
2018-12-02T02:50:17.633Z,0
2018-12-02T02:51:26.305Z,0
2018-12-02T02:52:34.992Z,0
2018-12-02T02:53:43.917Z,0
2018-12-02T02:54:52.599Z,0
2018-12-02T02:56:01.279Z,0
2018-12-02T02:57:10.221Z,0
2018-12-02T02:58:18.903Z,0
2018-12-02T02:59:27.586Z,0
2018-12-02T03:00:36.259Z,0
2018-12-02T03:01:44.925Z,0
2018-12-02T03:02:53.609Z,0
2018-12-02T03:04:02.322Z,0
2018-12-02T03:05:11.013Z,0
2018-12-02T03:06:19.689Z,0
2018-12-02T03:07:28.637Z,0
2018-12-02T03:08:37.835Z,0
2018-12-02T03:09:46.524Z,0
2018-12-02T03:10:55.441Z,0
2018-12-02T03:12:04.116Z,0
2018-12-02T03:13:12.782Z,0
2018-12-02T03:14:21.734Z,0
2018-12-02T03:15:30.406Z,0
2018-12-02T03:16:39.345Z,0
2018-12-02T03:17:48.017Z,0
2018-12-02T03:18:57.237Z,0
2018-12-02T03:20:06.436Z,0
2018-12-02T03:21:15.116Z,0
2018-12-02T03:22:23.791Z,0
2018-12-02T03:23:32.476Z,0
2018-12-02T03:24:41.154Z,0
2018-12-02T03:25:49.828Z,0
2018-12-02T03:26:58.505Z,0
2018-12-02T03:28:07.184Z,0
2018-12-02T03:29:15.891Z,0
2018-12-02T03:30:24.711Z,0
2018-12-02T03:31:33.414Z,0
2018-12-02T03:32:42.636Z,0
2018-12-02T03:33:51.852Z,0
2018-12-02T03:35:00.787Z,0
2018-12-02T03:36:09.469Z,0
2018-12-02T03:37:18.438Z,0
2018-12-02T03:38:27.374Z,0
2018-12-02T03:39:36.054Z,0
2018-12-02T03:40:44.727Z,0
2018-12-02T03:41:53.408Z,0
2018-12-02T03:43:02.111Z,0
2018-12-02T03:44:10.788Z,0
2018-12-02T03:45:19.462Z,0
2018-12-02T03:46:28.162Z,0
2018-12-02T03:47:36.838Z,0
2018-12-02T03:48:45.777Z,0
2018-12-02T03:49:54.464Z,0
2018-12-02T03:51:03.152Z,0
2018-12-02T03:52:12.073Z,0
2018-12-02T03:53:20.743Z,0
2018-12-02T03:54:29.412Z,0
2018-12-02T03:55:38.080Z,0
2018-12-02T03:56:46.760Z,0
2018-12-02T03:57:55.440Z,0
2018-12-02T03:59:04.384Z,0
2018-12-02T04:00:13.057Z,0
2018-12-02T04:01:21.743Z,0
2018-12-02T04:02:30.413Z,0
2018-12-02T04:03:39.096Z,0
2018-12-02T04:04:47.772Z,0
2018-12-02T04:05:56.509Z,0
2018-12-02T04:07:05.444Z,0
2018-12-02T04:08:14.123Z,0
2018-12-02T04:09:22.791Z,0
2018-12-02T04:10:31.476Z,0
2018-12-02T04:11:40.154Z,0
2018-12-02T04:12:49.378Z,0
2018-12-02T04:13:58.056Z,0
2018-12-02T04:15:06.734Z,0
2018-12-02T04:16:15.414Z,0
2018-12-02T04:17:24.087Z,0
2018-12-02T04:18:32.760Z,0
2018-12-02T04:19:41.435Z,0
2018-12-02T04:20:50.114Z,0
2018-12-02T04:21:58.788Z,0
2018-12-02T04:23:07.704Z,0
2018-12-02T04:24:16.635Z,0
2018-12-02T04:25:25.582Z,0
2018-12-02T04:26:34.784Z,0
2018-12-02T04:27:43.715Z,0
2018-12-02T04:28:52.394Z,0
2018-12-02T04:30:01.067Z,0
2018-12-02T04:31:10.251Z,0
2018-12-02T04:32:18.942Z,0
2018-12-02T04:33:27.877Z,0
2018-12-02T04:34:36.550Z,0
2018-12-02T04:35:45.224Z,0
2018-12-02T04:36:53.926Z,0
2018-12-02T04:38:02.600Z,0
2018-12-02T04:39:11.272Z,0
2018-12-02T04:40:19.953Z,0
2018-12-02T04:41:28.629Z,0
2018-12-02T04:42:37.312Z,0
2018-12-02T04:43:46.280Z,0
2018-12-02T04:44:54.962Z,0
2018-12-02T04:46:03.910Z,0
2018-12-02T04:47:12.582Z,0
2018-12-02T04:48:21.259Z,0
2018-12-02T04:49:29.928Z,0
2018-12-02T04:50:38.604Z,0
2018-12-02T04:51:47.278Z,0
2018-12-02T04:52:55.957Z,0
2018-12-02T04:54:04.637Z,0
2018-12-02T04:55:13.568Z,0
2018-12-02T04:56:22.252Z,0
2018-12-02T04:57:31.177Z,0
2018-12-02T04:58:39.852Z,0
2018-12-02T04:59:49.543Z,0
2018-12-02T05:00:58.238Z,0
2018-12-02T05:02:06.912Z,0
2018-12-02T05:03:15.581Z,0
2018-12-02T05:04:24.265Z,0
2018-12-02T05:05:32.936Z,0
2018-12-02T05:06:41.617Z,0
2018-12-02T05:07:50.587Z,0
2018-12-02T05:08:59.298Z,0
2018-12-02T05:10:08.003Z,0
2018-12-02T05:11:16.687Z,0
2018-12-02T05:12:25.609Z,0
2018-12-02T05:13:34.310Z,0
2018-12-02T05:14:42.972Z,0
2018-12-02T05:15:51.648Z,0
2018-12-02T05:17:00.833Z,0
2018-12-02T05:18:09.515Z,0
2018-12-02T05:19:18.433Z,0
2018-12-02T05:20:27.111Z,0
2018-12-02T05:21:35.783Z,0
2018-12-02T05:22:44.463Z,0
2018-12-02T05:23:53.388Z,0
2018-12-02T05:25:02.053Z,0
2018-12-02T05:26:10.719Z,0
2018-12-02T05:27:19.391Z,0
2018-12-02T05:28:28.087Z,0
2018-12-02T05:29:36.762Z,0
2018-12-02T05:30:45.451Z,0
2018-12-02T05:31:54.125Z,0
2018-12-02T05:33:02.810Z,0
2018-12-02T05:34:11.480Z,0
2018-12-02T05:35:20.418Z,0
2018-12-02T05:36:29.084Z,0
2018-12-02T05:37:37.767Z,0
2018-12-02T05:38:46.442Z,0
2018-12-02T05:39:55.113Z,0
2018-12-02T05:41:03.773Z,0
2018-12-02T05:42:12.710Z,0
2018-12-02T05:43:21.380Z,0
2018-12-02T05:44:30.051Z,0
2018-12-02T05:45:38.723Z,0
2018-12-02T05:46:47.388Z,0
2018-12-02T05:47:56.066Z,0
2018-12-02T05:49:04.728Z,0
2018-12-02T05:50:13.663Z,0
2018-12-02T05:51:22.321Z,0
2018-12-02T05:52:30.999Z,0
2018-12-02T05:53:39.664Z,0
2018-12-02T05:54:48.344Z,0
2018-12-02T05:55:57.004Z,0
2018-12-02T05:57:05.726Z,0
2018-12-02T05:58:14.394Z,0
2018-12-02T05:59:23.076Z,0
2018-12-02T06:00:31.743Z,0
2018-12-02T06:01:40.411Z,0
2018-12-02T06:02:49.088Z,0
2018-12-02T06:03:57.754Z,0
2018-12-02T06:05:06.684Z,0
2018-12-02T06:06:15.355Z,0
2018-12-02T06:07:24.031Z,0
2018-12-02T06:08:32.689Z,0
2018-12-02T06:09:41.368Z,0
2018-12-02T06:10:50.298Z,0
2018-12-02T06:11:58.972Z,0
2018-12-02T06:13:07.630Z,0
2018-12-02T06:14:16.311Z,0
2018-12-02T06:15:24.984Z,0
2018-12-02T06:16:33.660Z,0
2018-12-02T06:17:42.327Z,0
2018-12-02T06:18:50.997Z,0
2018-12-02T06:20:04.624Z,0
2018-12-02T06:21:13.794Z,0
2018-12-02T06:22:22.476Z,0
2018-12-02T06:23:31.133Z,0
2018-12-02T06:24:39.866Z,0
2018-12-02T06:25:53.238Z,0
2018-12-02T06:27:01.927Z,0
2018-12-02T06:28:10.599Z,0
2018-12-02T06:29:19.279Z,0
2018-12-02T06:30:28.267Z,0
2018-12-02T06:31:36.948Z,0
2018-12-02T06:32:45.624Z,0
2018-12-02T06:33:54.300Z,0
2018-12-02T06:35:02.979Z,0
2018-12-02T06:36:11.910Z,0
2018-12-02T06:37:20.578Z,0
2018-12-02T06:38:29.256Z,0
2018-12-02T06:39:37.934Z,0
2018-12-02T06:40:46.603Z,0
2018-12-02T06:41:55.281Z,0
2018-12-02T06:43:03.959Z,0
2018-12-02T06:44:12.632Z,0
2018-12-02T06:45:21.296Z,0
2018-12-02T06:46:29.972Z,0
2018-12-02T06:47:38.639Z,0
2018-12-02T06:48:47.566Z,0
2018-12-02T06:49:56.229Z,0
2018-12-02T06:51:04.910Z,4
2018-12-02T06:52:13.573Z,4
2018-12-02T06:53:22.245Z,0
2018-12-02T06:54:30.920Z,4
2018-12-02T06:55:39.858Z,4
2018-12-02T06:56:48.534Z,4
2018-12-02T06:57:57.459Z,8
2018-12-02T06:59:06.135Z,4
2018-12-02T07:00:14.797Z,8
2018-12-02T07:01:23.485Z,8
2018-12-02T07:02:32.147Z,8
2018-12-02T07:03:40.833Z,8
2018-12-02T07:04:49.494Z,8
2018-12-02T07:05:58.167Z,12
2018-12-02T07:07:06.839Z,12
2018-12-02T07:08:15.774Z,12
2018-12-02T07:09:25.397Z,16
2018-12-02T07:10:34.112Z,20
2018-12-02T07:11:43.109Z,20
2018-12-02T07:12:51.853Z,24
2018-12-02T07:14:00.845Z,24
2018-12-02T07:15:10.320Z,20
2018-12-02T07:16:19.133Z,28
2018-12-02T07:17:27.805Z,32
2018-12-02T07:18:36.480Z,40
2018-12-02T07:19:45.445Z,36
2018-12-02T07:20:54.221Z,40
2018-12-02T07:22:03.143Z,48
2018-12-02T07:23:12.027Z,44
2018-12-02T07:24:20.712Z,48
2018-12-02T07:25:29.390Z,44
2018-12-02T07:26:38.057Z,52
2018-12-02T07:27:46.729Z,60
2018-12-02T07:28:55.401Z,64
2018-12-02T07:30:04.074Z,76
2018-12-02T07:31:12.741Z,84
2018-12-02T07:32:21.415Z,84
2018-12-02T07:33:30.084Z,88
2018-12-02T07:34:38.761Z,100
2018-12-02T07:35:47.482Z,108
2018-12-02T07:36:56.158Z,104
2018-12-02T07:38:04.831Z,116
2018-12-02T07:39:13.499Z,112
2018-12-02T07:40:22.187Z,112
2018-12-02T07:41:30.865Z,108
2018-12-02T07:42:39.533Z,112
2018-12-02T07:43:48.205Z,88
2018-12-02T07:44:56.885Z,104
2018-12-02T07:46:05.563Z,108
2018-12-02T07:47:14.235Z,108
2018-12-02T07:48:22.907Z,112
2018-12-02T07:49:31.588Z,132
2018-12-02T07:50:40.298Z,168
2018-12-02T07:51:49.244Z,116
2018-12-02T07:52:58.172Z,100
2018-12-02T07:54:06.847Z,100
2018-12-02T07:55:15.525Z,120
2018-12-02T07:56:24.446Z,108
2018-12-02T07:57:33.369Z,112
2018-12-02T07:58:42.034Z,128
2018-12-02T07:59:50.702Z,136
2018-12-02T08:00:59.370Z,144
2018-12-02T08:02:08.064Z,180
2018-12-02T08:03:16.737Z,208
2018-12-02T08:04:25.417Z,192
2018-12-02T08:05:34.101Z,216
2018-12-02T08:06:42.782Z,196
2018-12-02T08:07:51.461Z,188
2018-12-02T08:09:00.387Z,212
2018-12-02T08:10:09.067Z,204
2018-12-02T08:11:17.750Z,188
2018-12-02T08:12:26.423Z,196
2018-12-02T08:13:35.102Z,180
2018-12-02T08:14:43.772Z,212
2018-12-02T08:15:52.446Z,224
2018-12-02T08:17:01.117Z,204
2018-12-02T08:18:09.794Z,176
2018-12-02T08:19:18.722Z,184
2018-12-02T08:20:27.401Z,180
2018-12-02T08:21:36.071Z,160
2018-12-02T08:22:44.757Z,152
2018-12-02T08:23:58.118Z,152
2018-12-02T08:25:06.800Z,168
2018-12-02T08:26:15.468Z,164
2018-12-02T08:27:24.146Z,144
2018-12-02T08:28:33.078Z,136
2018-12-02T08:29:41.756Z,164
2018-12-02T08:30:50.685Z,196
2018-12-02T08:31:59.353Z,232
2018-12-02T08:33:08.860Z,236
2018-12-02T08:34:17.614Z,208
2018-12-02T08:35:26.549Z,192
2018-12-02T08:36:35.219Z,160
2018-12-02T08:37:43.888Z,168
2018-12-02T08:38:52.579Z,184
2018-12-02T08:40:01.510Z,260
2018-12-02T08:41:10.174Z,312
2018-12-02T08:42:18.848Z,432
2018-12-02T08:43:27.775Z,460
2018-12-02T08:44:36.452Z,512
2018-12-02T08:45:45.126Z,432
2018-12-02T08:46:53.807Z,416
2018-12-02T08:48:02.475Z,460
2018-12-02T08:49:11.411Z,452
2018-12-02T08:50:20.089Z,424
2018-12-02T08:51:29.040Z,372
2018-12-02T08:52:37.717Z,416
2018-12-02T08:53:46.391Z,468
2018-12-02T08:54:55.076Z,484
2018-12-02T08:56:03.762Z,484
2018-12-02T08:57:12.787Z,476
2018-12-02T08:58:21.475Z,460
2018-12-02T08:59:30.154Z,436
2018-12-02T09:00:39.093Z,460
2018-12-02T09:01:47.771Z,512
2018-12-02T09:02:56.446Z,504
2018-12-02T09:04:05.121Z,516
2018-12-02T09:05:13.807Z,556
2018-12-02T09:06:22.746Z,564
2018-12-02T09:07:31.418Z,532
2018-12-02T09:08:40.082Z,584
2018-12-02T09:09:48.758Z,652
2018-12-02T09:10:57.432Z,688
2018-12-02T09:12:06.126Z,696
2018-12-02T09:13:15.044Z,720
2018-12-02T09:14:23.733Z,684
2018-12-02T09:15:32.657Z,648
2018-12-02T09:16:41.347Z,600
2018-12-02T09:17:50.022Z,620
2018-12-02T09:18:58.698Z,620
2018-12-02T09:20:07.373Z,644
2018-12-02T09:21:16.054Z,672
2018-12-02T09:22:24.727Z,716
2018-12-02T09:23:33.413Z,756
2018-12-02T09:24:42.086Z,724
2018-12-02T09:25:50.757Z,800
2018-12-02T09:26:59.437Z,736
2018-12-02T09:28:08.106Z,712
2018-12-02T09:29:16.817Z,728
2018-12-02T09:30:25.489Z,700
2018-12-02T09:31:34.172Z,652
2018-12-02T09:32:42.842Z,552
2018-12-02T09:33:51.523Z,512
2018-12-02T09:35:00.190Z,528
2018-12-02T09:36:08.876Z,544
2018-12-02T09:37:17.548Z,568
2018-12-02T09:38:26.221Z,524
2018-12-02T09:39:34.882Z,500
2018-12-02T09:40:43.562Z,480
2018-12-02T09:41:52.240Z,436
2018-12-02T09:43:01.170Z,488
2018-12-02T09:44:09.843Z,500
2018-12-02T09:45:18.508Z,516
2018-12-02T09:46:27.197Z,536
2018-12-02T09:47:35.865Z,496
2018-12-02T09:48:44.556Z,572
2018-12-02T09:49:53.219Z,496
2018-12-02T09:51:01.906Z,584
2018-12-02T09:52:10.584Z,596
2018-12-02T09:53:19.274Z,688
2018-12-02T09:54:29.897Z,680
2018-12-02T09:55:38.566Z,836
2018-12-02T09:56:47.244Z,904
2018-12-02T09:57:56.177Z,816
2018-12-02T09:59:04.852Z,928
2018-12-02T10:00:13.526Z,920
2018-12-02T10:01:22.194Z,872
2018-12-02T10:02:30.865Z,808
2018-12-02T10:03:39.550Z,808
2018-12-02T10:04:48.240Z,712
2018-12-02T10:05:56.918Z,872
2018-12-02T10:07:05.583Z,824
2018-12-02T10:08:14.255Z,796
2018-12-02T10:09:22.926Z,744
2018-12-02T10:10:31.603Z,1076
2018-12-02T10:11:40.266Z,1112
2018-12-02T10:12:48.953Z,1016
2018-12-02T10:13:57.631Z,1108
2018-12-02T10:15:06.563Z,1144
2018-12-02T10:16:20.265Z,1180
2018-12-02T10:17:28.944Z,1200
2018-12-02T10:18:37.621Z,1160
2018-12-02T10:19:46.292Z,1092
2018-12-02T10:20:54.971Z,1144
2018-12-02T10:22:03.636Z,1224
2018-12-02T10:23:12.310Z,1132
2018-12-02T10:24:21.000Z,1004
2018-12-02T10:25:29.677Z,980
2018-12-02T10:26:38.349Z,1180
2018-12-02T10:27:47.026Z,1108
2018-12-02T10:28:55.708Z,1128
2018-12-02T10:30:04.637Z,1144
2018-12-02T10:31:13.305Z,1524
2018-12-02T10:32:21.982Z,1452
2018-12-02T10:33:30.703Z,1368
2018-12-02T10:34:39.380Z,968
2018-12-02T10:35:48.049Z,1052
2018-12-02T10:36:56.722Z,976
2018-12-02T10:38:05.396Z,912
2018-12-02T10:39:14.070Z,840
2018-12-02T10:40:22.758Z,920
2018-12-02T10:41:31.438Z,1132
2018-12-02T10:42:40.109Z,1228
2018-12-02T10:43:48.783Z,1164
2018-12-02T10:44:57.468Z,1140
2018-12-02T10:46:06.143Z,1308
2018-12-02T10:47:14.814Z,1172
2018-12-02T10:48:23.492Z,1088
2018-12-02T10:49:32.173Z,1048
2018-12-02T10:50:40.844Z,1004
2018-12-02T10:51:49.531Z,924
2018-12-02T10:52:58.202Z,988
2018-12-02T10:54:06.881Z,1016
2018-12-02T10:55:15.821Z,992
2018-12-02T10:56:24.531Z,872
2018-12-02T10:57:33.206Z,836
2018-12-02T10:58:41.876Z,1028
2018-12-02T10:59:50.550Z,872
2018-12-02T11:00:59.234Z,836
2018-12-02T11:02:07.917Z,796
2018-12-02T11:03:16.581Z,648
2018-12-02T11:04:25.265Z,720
2018-12-02T11:05:33.934Z,584
2018-12-02T11:06:42.860Z,568
2018-12-02T11:07:51.530Z,672
2018-12-02T11:09:00.211Z,820
2018-12-02T11:10:08.882Z,1112
2018-12-02T11:11:17.565Z,1396
2018-12-02T11:12:26.240Z,1840
2018-12-02T11:13:34.913Z,2240
2018-12-02T11:14:43.586Z,2048
2018-12-02T11:15:52.263Z,1332
2018-12-02T11:17:00.938Z,908
2018-12-02T11:18:10.128Z,800
2018-12-02T11:19:18.811Z,1000
2018-12-02T11:20:27.476Z,1100
2018-12-02T11:21:36.420Z,1148
2018-12-02T11:22:45.342Z,1240
2018-12-02T11:23:54.032Z,1136
2018-12-02T11:25:02.693Z,1148
2018-12-02T11:26:11.372Z,1212
2018-12-02T11:27:20.037Z,1092
2018-12-02T11:28:28.715Z,1292
2018-12-02T11:29:37.389Z,1344
2018-12-02T11:30:46.071Z,1296
2018-12-02T11:31:54.757Z,1072
2018-12-02T11:33:03.436Z,1060
2018-12-02T11:34:12.114Z,1200
2018-12-02T11:35:20.796Z,1208
2018-12-02T11:36:29.474Z,1096
2018-12-02T11:37:38.158Z,1084
2018-12-02T11:38:47.109Z,892
2018-12-02T11:39:55.771Z,896
2018-12-02T11:41:04.711Z,820
2018-12-02T11:42:13.381Z,732
2018-12-02T11:43:22.061Z,712
2018-12-02T11:44:30.725Z,808
2018-12-02T11:45:39.673Z,936
2018-12-02T11:46:48.342Z,1088
2018-12-02T11:47:57.037Z,1104
2018-12-02T11:49:05.713Z,888
2018-12-02T11:50:14.382Z,784
2018-12-02T11:51:23.058Z,832
2018-12-02T11:52:31.734Z,760
2018-12-02T11:53:40.417Z,688
2018-12-02T11:54:49.084Z,736
2018-12-02T11:55:57.772Z,696
2018-12-02T11:57:06.616Z,736
2018-12-02T11:58:15.334Z,856
2018-12-02T11:59:24.032Z,760
2018-12-02T12:00:32.986Z,628
2018-12-02T12:01:41.667Z,636
2018-12-02T12:02:50.336Z,512
2018-12-02T12:03:59.027Z,556
2018-12-02T12:05:07.698Z,616
2018-12-02T12:06:16.386Z,512
2018-12-02T12:07:25.054Z,532
2018-12-02T12:08:33.717Z,540
2018-12-02T12:09:42.388Z,580
2018-12-02T12:10:51.073Z,580
2018-12-02T12:11:59.751Z,540
2018-12-02T12:13:08.423Z,500
2018-12-02T12:14:17.349Z,596
2018-12-02T12:15:26.018Z,640
2018-12-02T12:16:34.708Z,656
2018-12-02T12:17:43.386Z,676
2018-12-02T12:18:52.323Z,712
2018-12-02T12:20:00.990Z,736
2018-12-02T12:21:09.681Z,748
2018-12-02T12:22:18.353Z,756
2018-12-02T12:23:27.034Z,828
2018-12-02T12:24:35.706Z,884
2018-12-02T12:25:44.634Z,804
2018-12-02T12:26:53.317Z,1016
2018-12-02T12:28:01.997Z,1128
2018-12-02T12:29:10.674Z,1036
2018-12-02T12:30:19.339Z,1108
2018-12-02T12:31:28.018Z,1380
2018-12-02T12:32:36.691Z,1480
2018-12-02T12:33:45.374Z,1480
2018-12-02T12:34:54.037Z,1432
2018-12-02T12:36:02.715Z,1220
2018-12-02T12:37:11.380Z,1308
2018-12-02T12:38:20.098Z,1248
2018-12-02T12:39:29.029Z,1264
2018-12-02T12:40:37.707Z,1252
2018-12-02T12:41:46.376Z,1508
2018-12-02T12:42:55.077Z,1456
2018-12-02T12:44:03.747Z,1432
2018-12-02T12:45:12.422Z,1424
2018-12-02T12:46:21.100Z,1400
2018-12-02T12:47:29.768Z,1420
2018-12-02T12:48:38.447Z,1460
2018-12-02T12:49:47.116Z,1340
2018-12-02T12:50:55.801Z,1248
2018-12-02T12:52:04.507Z,1256
2018-12-02T12:53:13.186Z,1512
2018-12-02T12:54:21.857Z,1176
2018-12-02T12:55:31.238Z,1284
2018-12-02T12:56:39.908Z,1064
2018-12-02T12:57:48.592Z,1176
2018-12-02T12:58:57.260Z,1224
2018-12-02T13:00:05.933Z,1376
2018-12-02T13:01:14.609Z,1456
2018-12-02T13:02:23.290Z,1412
2018-12-02T13:03:31.974Z,1408
2018-12-02T13:04:40.915Z,1652
2018-12-02T13:05:49.854Z,1368
2018-12-02T13:06:58.768Z,1260
2018-12-02T13:08:07.480Z,1228
2018-12-02T13:09:16.160Z,936
2018-12-02T13:10:24.851Z,904
2018-12-02T13:11:33.523Z,844
2018-12-02T13:12:42.200Z,860
2018-12-02T13:13:50.881Z,852
2018-12-02T13:14:59.561Z,996
2018-12-02T13:16:08.251Z,928
2018-12-02T13:17:17.176Z,792
2018-12-02T13:18:25.845Z,864
2018-12-02T13:19:34.529Z,884
2018-12-02T13:20:43.208Z,1044
2018-12-02T13:21:51.882Z,1084
2018-12-02T13:23:00.559Z,1116
2018-12-02T13:24:09.227Z,1312
2018-12-02T13:25:17.910Z,1432
2018-12-02T13:26:26.589Z,1800
2018-12-02T13:27:35.272Z,1884
2018-12-02T13:28:44.202Z,1840
2018-12-02T13:29:52.903Z,1608
2018-12-02T13:31:01.834Z,1472
2018-12-02T13:32:10.510Z,1304
2018-12-02T13:33:19.189Z,1200
2018-12-02T13:34:28.138Z,1024
2018-12-02T13:35:37.063Z,1048
2018-12-02T13:36:45.992Z,1064
2018-12-02T13:37:54.694Z,824
2018-12-02T13:39:03.377Z,748
2018-12-02T13:40:12.173Z,724
2018-12-02T13:41:20.854Z,816
2018-12-02T13:42:29.587Z,656
2018-12-02T13:43:38.527Z,916
2018-12-02T13:44:47.198Z,856
2018-12-02T13:45:55.884Z,604
2018-12-02T13:47:04.573Z,552
2018-12-02T13:48:13.244Z,924
2018-12-02T13:49:21.923Z,604
2018-12-02T13:50:30.595Z,628
2018-12-02T13:51:39.298Z,564
2018-12-02T13:52:47.982Z,484
2018-12-02T13:53:56.660Z,488
2018-12-02T13:55:05.332Z,420
2018-12-02T13:56:14.011Z,512
2018-12-02T13:57:22.947Z,436
2018-12-02T13:58:31.627Z,384
2018-12-02T13:59:40.303Z,368
2018-12-02T14:00:48.984Z,280
2018-12-02T14:01:57.662Z,340
2018-12-02T14:03:06.344Z,456
2018-12-02T14:04:15.012Z,376
2018-12-02T14:05:23.704Z,428
2018-12-02T14:06:32.375Z,676
2018-12-02T14:07:41.061Z,908
2018-12-02T14:08:49.731Z,968
2018-12-02T14:09:58.736Z,876
2018-12-02T14:11:07.662Z,880
2018-12-02T14:12:16.386Z,812
2018-12-02T14:13:25.087Z,704
2018-12-02T14:14:33.774Z,772
2018-12-02T14:15:42.448Z,816
2018-12-02T14:16:51.116Z,764
2018-12-02T14:17:59.799Z,572
2018-12-02T14:19:08.987Z,436
2018-12-02T14:20:17.719Z,540
2018-12-02T14:21:26.392Z,472
2018-12-02T14:22:35.077Z,316
2018-12-02T14:23:43.744Z,240
2018-12-02T14:24:52.433Z,248
2018-12-02T14:26:01.103Z,272
2018-12-02T14:27:09.787Z,220
2018-12-02T14:28:18.462Z,200
2018-12-02T14:29:27.158Z,232
2018-12-02T14:30:35.824Z,216
2018-12-02T14:31:44.499Z,252
2018-12-02T14:32:53.161Z,336
2018-12-02T14:34:01.837Z,464
2018-12-02T14:35:10.556Z,424
2018-12-02T14:36:19.239Z,344
2018-12-02T14:37:28.172Z,284
2018-12-02T14:38:36.835Z,300
2018-12-02T14:39:45.516Z,316
2018-12-02T14:40:54.189Z,264
2018-12-02T14:42:02.870Z,260
2018-12-02T14:43:11.535Z,224
2018-12-02T14:44:20.216Z,340
2018-12-02T14:45:28.892Z,280
2018-12-02T14:46:37.578Z,228
2018-12-02T14:47:46.499Z,244
2018-12-02T14:48:55.226Z,316
2018-12-02T14:50:04.425Z,332
2018-12-02T14:51:13.109Z,288
2018-12-02T14:52:22.049Z,244
2018-12-02T14:53:30.719Z,256
2018-12-02T14:54:39.406Z,172
2018-12-02T14:55:48.077Z,144
2018-12-02T14:56:56.783Z,112
2018-12-02T14:58:05.455Z,100
2018-12-02T14:59:14.137Z,104
2018-12-02T15:00:22.804Z,100
2018-12-02T15:01:31.740Z,92
2018-12-02T15:02:40.417Z,96
2018-12-02T15:03:49.096Z,136
2018-12-02T15:04:57.786Z,152
2018-12-02T15:06:06.722Z,136
2018-12-02T15:07:15.404Z,120
2018-12-02T15:08:24.101Z,152
2018-12-02T15:09:32.784Z,144
2018-12-02T15:10:41.719Z,180
2018-12-02T15:11:50.396Z,204
2018-12-02T15:12:59.127Z,212
2018-12-02T15:14:08.509Z,192
2018-12-02T15:15:17.180Z,164
2018-12-02T15:16:26.117Z,136
2018-12-02T15:17:34.793Z,132
2018-12-02T15:18:43.474Z,120
2018-12-02T15:19:52.141Z,108
2018-12-02T15:21:00.824Z,100
2018-12-02T15:22:09.499Z,92
2018-12-02T15:23:18.177Z,80
2018-12-02T15:24:26.856Z,76
2018-12-02T15:25:36.053Z,72
2018-12-02T15:26:44.721Z,64
2018-12-02T15:27:53.658Z,56
2018-12-02T15:29:02.336Z,48
2018-12-02T15:30:11.014Z,40
2018-12-02T15:31:19.688Z,40
2018-12-02T15:32:28.363Z,36
2018-12-02T15:33:37.729Z,32
2018-12-02T15:34:46.512Z,24
2018-12-02T15:35:55.193Z,24
2018-12-02T15:37:03.872Z,20
2018-12-02T15:38:12.557Z,16
2018-12-02T15:39:21.233Z,16
2018-12-02T15:40:29.912Z,12
2018-12-02T15:41:38.588Z,12
2018-12-02T15:42:47.718Z,8
2018-12-02T15:43:56.393Z,8
2018-12-02T15:45:05.074Z,8
2018-12-02T15:46:13.753Z,8
2018-12-02T15:47:22.439Z,4
2018-12-02T15:48:31.137Z,4
2018-12-02T15:49:40.856Z,4
2018-12-02T15:50:54.784Z,4
2018-12-02T15:52:03.471Z,0
2018-12-02T15:53:12.155Z,4
2018-12-02T15:54:20.830Z,0
2018-12-02T15:55:29.518Z,0
2018-12-02T15:56:38.195Z,0
2018-12-02T15:57:46.872Z,0
2018-12-02T15:58:55.809Z,0
2018-12-02T16:00:04.745Z,0
2018-12-02T16:01:13.433Z,0
2018-12-02T16:02:22.369Z,0
2018-12-02T16:03:31.069Z,0
2018-12-02T16:04:39.751Z,0
2018-12-02T16:05:48.443Z,0
2018-12-02T16:06:57.119Z,0
2018-12-02T16:08:05.808Z,0
2018-12-02T16:09:15.052Z,0
2018-12-02T16:10:23.796Z,0
2018-12-02T16:11:32.732Z,0
2018-12-02T16:12:41.425Z,0
2018-12-02T16:13:50.105Z,0
2018-12-02T16:14:58.788Z,0
2018-12-02T16:16:07.526Z,0